Time,TemperatureF,DewpointF,PressureIn,WindDirection,WindDirectionDegrees,WindSpeedMPH,WindSpeedGustMPH,Humidity,HourlyPrecipIn,Conditions,Clouds,dailyrainin,SolarRadiationWatts/m^2,SoftwareType,DateUTC
2013-04-01 00:02:00,36.0,13.0,-100.00,NNW,327,2.0,4.0,38,0.00,,,0.00,0.000000,,2013-04-01 06:02:00,
2013-04-01 00:12:00,36.0,13.0,-100.00,NNW,327,2.0,4.0,38,0.00,,,0.00,0.000000,,2013-04-01 06:12:00,
2013-04-01 00:22:00,36.0,13.0,-100.00,NNW,327,2.0,4.0,38,0.00,,,0.00,0.000000,,2013-04-01 06:22:00,
2013-04-01 00:43:00,34.0,15.0,-100.00,WNW,292,2.0,3.0,45,0.00,,,0.00,0.000000,,2013-04-01 06:43:00,
2013-04-01 00:53:00,34.0,15.0,-100.00,WNW,292,2.0,3.0,45,0.00,,,0.00,0.000000,,2013-04-01 06:53:00,
2013-04-01 01:02:00,34.0,15.0,-100.00,WNW,292,2.0,3.0,45,0.00,,,0.00,0.000000,,2013-04-01 07:02:00,
2013-04-01 01:12:00,34.0,15.0,-100.00,WNW,292,2.0,3.0,45,0.00,,,0.00,0.000000,,2013-04-01 07:12:00,
2013-04-01 01:22:00,34.0,15.0,-100.00,WNW,292,2.0,3.0,45,0.00,,,0.00,0.000000,,2013-04-01 07:22:00,
2013-04-01 01:43:00,32.0,16.0,-100.00,WNW,291,2.0,3.0,51,0.00,,,0.00,0.000000,,2013-04-01 07:43:00,
2013-04-01 01:53:00,32.0,16.0,-100.00,WNW,291,2.0,3.0,51,0.00,,,0.00,0.000000,,2013-04-01 07:53:00,
2013-04-01 02:03:00,32.0,16.0,-100.00,WNW,291,2.0,3.0,51,0.00,,,0.00,0.000000,,2013-04-01 08:03:00,
2013-04-01 02:12:00,32.0,16.0,-100.00,WNW,291,2.0,3.0,51,0.00,,,0.00,0.000000,,2013-04-01 08:12:00,
2013-04-01 02:22:00,32.0,16.0,-100.00,WNW,291,2.0,3.0,51,0.00,,,0.00,0.000000,,2013-04-01 08:22:00,
2013-04-01 02:43:00,31.0,15.0,-100.00,WNW,295,2.0,3.0,50,0.00,,,0.00,0.000000,,2013-04-01 08:43:00,
2013-04-01 02:53:00,31.0,15.0,-100.00,WNW,295,2.0,3.0,50,0.00,,,0.00,0.000000,,2013-04-01 08:53:00,
2013-04-01 03:02:00,31.0,15.0,-100.00,WNW,295,2.0,3.0,50,0.00,,,0.00,0.000000,,2013-04-01 09:02:00,
2013-04-01 03:12:00,31.0,15.0,-100.00,WNW,295,2.0,3.0,50,0.00,,,0.00,0.000000,,2013-04-01 09:12:00,
2013-04-01 03:22:00,31.0,15.0,-100.00,WNW,295,2.0,3.0,50,0.00,,,0.00,0.000000,,2013-04-01 09:22:00,
2013-04-01 03:23:00,31.0,15.0,-100.00,West,281,2.0,3.0,52,0.00,,,0.00,0.000000,,2013-04-01 09:23:00,
2013-04-01 03:43:00,31.0,15.0,-100.00,West,281,2.0,3.0,52,0.00,,,0.00,0.000000,,2013-04-01 09:43:00,
2013-04-01 03:53:00,31.0,15.0,-100.00,West,281,2.0,3.0,52,0.00,,,0.00,0.000000,,2013-04-01 09:53:00,
2013-04-01 04:03:00,31.0,15.0,-100.00,West,281,2.0,3.0,52,0.00,,,0.00,0.000000,,2013-04-01 10:03:00,
2013-04-01 04:12:00,31.0,15.0,-100.00,West,281,2.0,3.0,52,0.00,,,0.00,0.000000,,2013-04-01 10:12:00,
2013-04-01 04:23:00,31.0,15.0,-100.00,NW,315,2.0,3.0,51,0.00,,,0.00,0.000000,,2013-04-01 10:23:00,
2013-04-01 04:43:00,31.0,15.0,-100.00,NW,315,2.0,3.0,51,0.00,,,0.00,0.000000,,2013-04-01 10:43:00,
2013-04-01 04:53:00,31.0,15.0,-100.00,NW,315,2.0,3.0,51,0.00,,,0.00,0.000000,,2013-04-01 10:53:00,
2013-04-01 05:03:00,31.0,15.0,-100.00,NW,315,2.0,3.0,51,0.00,,,0.00,0.000000,,2013-04-01 11:03:00,
2013-04-01 05:13:00,31.0,15.0,-100.00,NW,315,2.0,3.0,51,0.00,,,0.00,0.000000,,2013-04-01 11:13:00,
2013-04-01 05:43:00,29.0,16.0,-100.00,NW,311,2.0,3.0,58,0.00,,,0.00,0.000000,,2013-04-01 11:43:00,
2013-04-01 05:53:00,29.0,16.0,-100.00,NW,311,2.0,3.0,58,0.00,,,0.00,0.000000,,2013-04-01 11:53:00,
2013-04-01 06:02:00,29.0,16.0,-100.00,NW,311,2.0,3.0,58,0.00,,,0.00,0.000000,,2013-04-01 12:02:00,
2013-04-01 06:12:00,29.0,16.0,-100.00,NW,311,2.0,3.0,58,0.00,,,0.00,0.000000,,2013-04-01 12:12:00,
2013-04-01 06:22:00,29.0,16.0,-100.00,NW,311,2.0,3.0,58,0.00,,,0.00,0.000000,,2013-04-01 12:22:00,
2013-04-01 06:43:00,28.0,16.0,-100.00,West,277,2.0,3.0,60,0.00,,,0.00,0.000000,,2013-04-01 12:43:00,
2013-04-01 06:53:00,28.0,16.0,-100.00,West,277,2.0,3.0,60,0.00,,,0.00,0.000000,,2013-04-01 12:53:00,
2013-04-01 07:03:00,28.0,16.0,-100.00,West,277,2.0,3.0,60,0.00,,,0.00,0.000000,,2013-04-01 13:03:00,
2013-04-01 07:12:00,28.0,16.0,-100.00,West,277,2.0,3.0,60,0.00,,,0.00,0.000000,,2013-04-01 13:12:00,
2013-04-01 07:22:00,28.0,16.0,-100.00,West,277,2.0,3.0,60,0.00,,,0.00,0.000000,,2013-04-01 13:22:00,
2013-04-01 07:43:00,34.0,18.0,-100.00,ENE,73,1.0,3.0,51,0.00,,,0.00,54.000000,,2013-04-01 13:43:00,
2013-04-01 07:53:00,34.0,18.0,-100.00,ENE,73,1.0,3.0,51,0.00,,,0.00,54.000000,,2013-04-01 13:53:00,
2013-04-01 08:12:00,34.0,18.0,-100.00,ENE,73,1.0,3.0,51,0.00,,,0.00,54.000000,,2013-04-01 14:12:00,
2013-04-01 08:22:00,34.0,18.0,-100.00,ENE,73,1.0,3.0,51,0.00,,,0.00,54.000000,,2013-04-01 14:22:00,
2013-04-01 08:43:00,36.0,17.0,-100.00,NNE,29,1.0,2.0,45,0.00,,,0.00,162.000000,,2013-04-01 14:43:00,
2013-04-01 08:53:00,36.0,17.0,-100.00,NNE,29,1.0,2.0,45,0.00,,,0.00,162.000000,,2013-04-01 14:53:00,
2013-04-01 09:03:00,36.0,17.0,-100.00,NNE,29,1.0,2.0,45,0.00,,,0.00,162.000000,,2013-04-01 15:03:00,
2013-04-01 09:13:00,36.0,17.0,-100.00,NNE,29,1.0,2.0,45,0.00,,,0.00,162.000000,,2013-04-01 15:13:00,
2013-04-01 09:22:00,36.0,17.0,-100.00,NNE,29,1.0,2.0,45,0.00,,,0.00,162.000000,,2013-04-01 15:22:00,
2013-04-01 09:23:00,41.0,20.0,-100.00,East,87,2.0,4.0,42,0.00,,,0.00,407.000000,,2013-04-01 15:23:00,
2013-04-01 09:43:00,41.0,20.0,-100.00,East,87,2.0,4.0,42,0.00,,,0.00,407.000000,,2013-04-01 15:43:00,
2013-04-01 09:54:00,41.0,20.0,-100.00,East,87,2.0,4.0,42,0.00,,,0.00,407.000000,,2013-04-01 15:54:00,
2013-04-01 10:03:00,41.0,20.0,-100.00,East,87,2.0,4.0,42,0.00,,,0.00,407.000000,,2013-04-01 16:03:00,
2013-04-01 10:13:00,41.0,20.0,-100.00,East,87,2.0,4.0,42,0.00,,,0.00,407.000000,,2013-04-01 16:13:00,
2013-04-01 11:42:00,42.0,20.0,-100.00,ESE,110,2.0,5.0,41,-99.99,,,0.00,711.000000,,2013-04-01 17:42:00,
2013-04-01 11:53:00,42.0,20.0,-100.00,ESE,110,2.0,5.0,41,-99.99,,,0.00,711.000000,,2013-04-01 17:53:00,
2013-04-01 12:02:00,42.0,20.0,-100.00,ESE,110,2.0,5.0,41,-99.99,,,0.00,711.000000,,2013-04-01 18:02:00,
2013-04-01 12:12:00,42.0,20.0,-100.00,ESE,110,2.0,5.0,41,-99.99,,,0.00,711.000000,,2013-04-01 18:12:00,
2013-04-01 12:22:00,42.0,20.0,-100.00,ESE,110,2.0,5.0,41,-99.99,,,0.00,711.000000,,2013-04-01 18:22:00,
2013-04-01 12:23:00,46.0,21.0,-100.00,SE,146,3.0,6.0,36,0.00,,,0.00,599.000000,,2013-04-01 18:23:00,
2013-04-01 12:43:00,46.0,21.0,-100.00,SE,146,3.0,6.0,36,0.00,,,0.00,599.000000,,2013-04-01 18:43:00,
2013-04-01 12:53:00,46.0,21.0,-100.00,SE,146,3.0,6.0,36,0.00,,,0.00,599.000000,,2013-04-01 18:53:00,
2013-04-01 13:03:00,46.0,21.0,-100.00,SE,146,3.0,6.0,36,0.00,,,0.00,599.000000,,2013-04-01 19:03:00,
2013-04-01 13:12:00,46.0,21.0,-100.00,SE,146,3.0,6.0,36,0.00,,,0.00,599.000000,,2013-04-01 19:12:00,
2013-04-01 13:43:00,53.0,21.0,-100.00,NE,50,2.0,5.0,28,0.00,,,0.00,925.000000,,2013-04-01 19:43:00,
2013-04-01 13:53:00,53.0,21.0,-100.00,NE,50,2.0,5.0,28,0.00,,,0.00,925.000000,,2013-04-01 19:53:00,
2013-04-01 14:02:00,53.0,21.0,-100.00,NE,50,2.0,5.0,28,0.00,,,0.00,925.000000,,2013-04-01 20:02:00,
2013-04-01 14:12:00,53.0,21.0,-100.00,NE,50,2.0,5.0,28,0.00,,,0.00,925.000000,,2013-04-01 20:12:00,
2013-04-01 14:22:00,53.0,21.0,-100.00,NE,50,2.0,5.0,28,0.00,,,0.00,925.000000,,2013-04-01 20:22:00,
2013-04-01 14:23:00,53.0,7.0,-100.00,SSW,203,5.0,12.0,15,0.00,,,0.00,997.000000,,2013-04-01 20:23:00,
2013-04-01 14:52:00,53.0,7.0,-100.00,SSW,203,5.0,12.0,15,0.00,,,0.00,997.000000,,2013-04-01 20:52:00,
2013-04-01 15:02:00,53.0,7.0,-100.00,SSW,203,5.0,12.0,15,0.00,,,0.00,997.000000,,2013-04-01 21:02:00,
2013-04-01 15:12:00,53.0,7.0,-100.00,SSW,203,5.0,12.0,15,0.00,,,0.00,997.000000,,2013-04-01 21:12:00,
2013-04-01 15:44:00,53.0,17.0,-100.00,SE,138,5.0,10.0,24,0.00,,,0.00,471.000000,,2013-04-01 21:44:00,
2013-04-01 15:53:00,53.0,17.0,-100.00,SE,138,5.0,10.0,24,0.00,,,0.00,471.000000,,2013-04-01 21:53:00,
2013-04-01 16:02:00,53.0,17.0,-100.00,SE,138,5.0,10.0,24,0.00,,,0.00,471.000000,,2013-04-01 22:02:00,
2013-04-01 16:12:00,53.0,17.0,-100.00,SE,138,5.0,10.0,24,0.00,,,0.00,471.000000,,2013-04-01 22:12:00,
2013-04-01 16:22:00,53.0,17.0,-100.00,SE,138,5.0,10.0,24,0.00,,,0.00,471.000000,,2013-04-01 22:22:00,
2013-04-01 16:43:00,51.0,16.0,-100.00,WNW,291,3.0,12.0,25,0.00,,,0.00,379.000000,,2013-04-01 22:43:00,
2013-04-01 16:52:00,51.0,16.0,-100.00,WNW,291,3.0,12.0,25,0.00,,,0.00,379.000000,,2013-04-01 22:52:00,
2013-04-01 17:02:00,51.0,16.0,-100.00,WNW,291,3.0,12.0,25,0.00,,,0.00,379.000000,,2013-04-01 23:02:00,
2013-04-01 17:12:00,51.0,16.0,-100.00,WNW,291,3.0,12.0,25,0.00,,,0.00,379.000000,,2013-04-01 23:12:00,
2013-04-01 17:22:00,51.0,16.0,-100.00,WNW,291,3.0,12.0,25,0.00,,,0.00,379.000000,,2013-04-01 23:22:00,
2013-04-01 17:43:00,50.0,16.0,-100.00,SSW,199,4.0,6.0,26,0.00,,,0.00,287.000000,,2013-04-01 23:43:00,
2013-04-01 17:53:00,50.0,16.0,-100.00,SSW,199,4.0,6.0,26,0.00,,,0.00,287.000000,,2013-04-01 23:53:00,
2013-04-01 18:03:00,50.0,16.0,-100.00,SSW,199,4.0,6.0,26,0.00,,,0.00,287.000000,,2013-04-02 00:03:00,
2013-04-01 18:12:00,50.0,16.0,-100.00,SSW,199,4.0,6.0,26,0.00,,,0.00,287.000000,,2013-04-02 00:12:00,
2013-04-01 18:22:00,50.0,16.0,-100.00,SSW,199,4.0,6.0,26,0.00,,,0.00,287.000000,,2013-04-02 00:22:00,
2013-04-01 18:43:00,47.0,22.0,-100.00,West,279,3.0,10.0,37,0.00,,,0.00,88.000000,,2013-04-02 00:43:00,
2013-04-01 18:53:00,47.0,22.0,-100.00,West,279,3.0,10.0,37,0.00,,,0.00,88.000000,,2013-04-02 00:53:00,
2013-04-01 19:02:00,47.0,22.0,-100.00,West,279,3.0,10.0,37,0.00,,,0.00,88.000000,,2013-04-02 01:02:00,
2013-04-01 19:12:00,47.0,22.0,-100.00,West,279,3.0,10.0,37,0.00,,,0.00,88.000000,,2013-04-02 01:12:00,
2013-04-01 19:22:00,47.0,22.0,-100.00,West,279,3.0,10.0,37,0.00,,,0.00,88.000000,,2013-04-02 01:22:00,
2013-04-01 19:43:00,44.0,22.0,-100.00,ESE,121,2.0,5.0,42,0.00,,,0.00,63.000000,,2013-04-02 01:43:00,
2013-04-01 19:53:00,44.0,22.0,-100.00,ESE,121,2.0,5.0,42,0.00,,,0.00,63.000000,,2013-04-02 01:53:00,
2013-04-01 20:03:00,44.0,22.0,-100.00,ESE,121,2.0,5.0,42,0.00,,,0.00,63.000000,,2013-04-02 02:03:00,
2013-04-01 20:12:00,44.0,22.0,-100.00,ESE,121,2.0,5.0,42,0.00,,,0.00,63.000000,,2013-04-02 02:12:00,
2013-04-01 20:22:00,44.0,22.0,-100.00,ESE,121,2.0,5.0,42,0.00,,,0.00,63.000000,,2013-04-02 02:22:00,
2013-04-01 20:43:00,39.0,23.0,-100.00,North,7,2.0,4.0,53,0.00,,,0.00,1.000000,,2013-04-02 02:43:00,
2013-04-01 20:53:00,39.0,23.0,-100.00,North,7,2.0,4.0,53,0.00,,,0.00,1.000000,,2013-04-02 02:53:00,
2013-04-01 21:02:00,39.0,23.0,-100.00,North,7,2.0,4.0,53,0.00,,,0.00,1.000000,,2013-04-02 03:02:00,
2013-04-01 21:12:00,39.0,23.0,-100.00,North,7,2.0,4.0,53,0.00,,,0.00,1.000000,,2013-04-02 03:12:00,
2013-04-01 21:22:00,39.0,23.0,-100.00,North,7,2.0,4.0,53,0.00,,,0.00,1.000000,,2013-04-02 03:22:00,
2013-04-01 21:43:00,38.0,25.0,-100.00,NNW,343,2.0,3.0,59,0.00,,,0.00,0.000000,,2013-04-02 03:43:00,
2013-04-01 21:53:00,38.0,25.0,-100.00,NNW,343,2.0,3.0,59,0.00,,,0.00,0.000000,,2013-04-02 03:53:00,
2013-04-01 22:03:00,38.0,25.0,-100.00,NNW,343,2.0,3.0,59,0.00,,,0.00,0.000000,,2013-04-02 04:03:00,
2013-04-01 22:13:00,38.0,25.0,-100.00,NNW,343,2.0,3.0,59,0.00,,,0.00,0.000000,,2013-04-02 04:13:00,
2013-04-01 22:22:00,38.0,25.0,-100.00,NNW,343,2.0,3.0,59,0.00,,,0.00,0.000000,,2013-04-02 04:22:00,
2013-04-01 22:43:00,34.0,23.0,-100.00,NNW,344,2.0,4.0,64,0.00,,,0.00,0.000000,,2013-04-02 04:43:00,
2013-04-01 22:53:00,34.0,23.0,-100.00,NNW,344,2.0,4.0,64,0.00,,,0.00,0.000000,,2013-04-02 04:53:00,
2013-04-01 23:02:00,34.0,23.0,-100.00,NNW,344,2.0,4.0,64,0.00,,,0.00,0.000000,,2013-04-02 05:02:00,
2013-04-01 23:12:00,34.0,23.0,-100.00,NNW,344,2.0,4.0,64,0.00,,,0.00,0.000000,,2013-04-02 05:12:00,
2013-04-01 23:22:00,34.0,23.0,-100.00,NNW,344,2.0,4.0,64,0.00,,,0.00,0.000000,,2013-04-02 05:22:00,
2013-04-01 23:43:00,31.0,23.0,-100.00,NNW,342,3.0,3.0,72,0.00,,,0.00,0.000000,,2013-04-02 05:43:00,
2013-04-01 23:52:00,31.0,23.0,-100.00,NNW,342,3.0,3.0,72,0.00,,,0.00,0.000000,,2013-04-02 05:52:00,